Time;durP1;ratioP1;P1;durP2;ratioP2;P2;SDS_P1;SDS_P2;PMS_P1;PMS_P2;Temp;Humidity;BMP_temperature;BMP_pressure;BME280_temperature;BME280_humidity;BME280_pressure;Samples;Min_cycle;Max_cycle;Signal;HPM_P1;HPM_P2
2022/04/05 00:01:17;;;;;;;10.48;2.00;;;;;;;;;;6131312;23;20028;-87
2022/04/05 00:03:43;;;;;;;5.53;1.73;;;;;;;;;;6107466;23;20025;-87
2022/04/05 00:06:09;;;;;;;6.90;2.63;;;;;;;;;;6132248;23;20017;-87
2022/04/05 00:08:35;;;;;;;5.70;1.63;;;;;;;;;;6108001;23;20017;-88
2022/04/05 00:11:02;;;;;;;7.53;1.80;;;;;;;;;;6132326;23;20018;-87
2022/04/05 00:13:28;;;;;;;7.68;1.77;;;;;;;;;;6107715;23;20025;-89
2022/04/05 00:15:54;;;;;;;4.70;1.33;;;;;;;;;;6131535;23;20461;-87
2022/04/05 00:18:20;;;;;;;6.72;1.83;;;;;;;;;;6106315;23;20021;-87
2022/04/05 00:20:46;;;;;;;4.80;2.08;;;;;;;;;;6132489;23;20067;-86
2022/04/05 00:23:12;;;;;;;6.32;1.30;;;;;;;;;;6131913;23;20047;-86
2022/04/05 00:25:38;;;;;;;10.02;1.73;;;;;;;;;;6106952;23;20018;-86
2022/04/05 00:28:04;;;;;;;8.00;2.17;;;;;;;;;;6106560;23;20022;-85
2022/04/05 00:30:31;;;;;;;8.73;2.58;;;;;;;;;;6106817;23;20413;-87
2022/04/05 00:32:57;;;;;;;2.55;1.42;;;;;;;;;;6131600;23;20048;-87
2022/04/05 00:35:23;;;;;;;10.55;1.73;;;;;;;;;;6130344;23;20056;-85
2022/04/05 00:37:50;;;;;;;8.30;1.70;;;;;;;;;;6130203;23;20053;-85
2022/04/05 00:40:16;;;;;;;10.23;2.65;;;;;;;;;;6105758;23;20052;-87
2022/04/05 00:42:42;;;;;;;12.18;2.47;;;;;;;;;;6104770;23;20478;-85
2022/04/05 00:45:09;;;;;;;5.35;1.75;;;;;;;;;;6105000;23;20029;-85
2022/04/05 00:47:36;;;;;;;7.47;1.83;;;;;;;;;;6129151;23;20017;-85
2022/04/05 00:50:03;;;;;;;3.80;1.60;;;;;;;;;;6129307;23;20017;-85
2022/04/05 00:52:29;;;;;;;8.25;2.35;;;;;;;;;;6104807;23;20100;-86
2022/04/05 00:54:55;;;;;;;7.70;2.40;;;;;;;;;;6105395;23;20017;-85
2022/04/05 00:57:22;;;;;;;6.28;1.70;;;;;;;;;;6104821;23;20477;-85
2022/04/05 00:59:49;;;;;;;6.05;1.80;;;;;;;;;;6105002;23;20018;-85
2022/04/05 01:02:17;;;;;;;10.65;2.17;;;;;;;;;;6129776;23;20024;-86
2022/04/05 01:04:44;;;;;;;11.82;1.98;;;;;;;;;;6106037;23;20028;-87
2022/04/05 01:07:13;;;;;;;6.35;1.90;;;;;;;;;;6129472;23;20100;-85
2022/04/05 01:09:40;;;;;;;10.77;2.30;;;;;;;;;;6128873;23;20056;-84
2022/04/05 01:12:07;;;;;;;9.75;2.88;;;;;;;;;;6129106;23;20013;-84
2022/04/05 01:14:33;;;;;;;5.30;1.90;;;;;;;;;;6105761;23;20448;-84
2022/04/05 01:16:59;;;;;;;8.30;1.77;;;;;;;;;;6130071;23;20148;-85
2022/04/05 01:19:26;;;;;;;2.78;1.92;;;;;;;;;;6106363;23;20068;-85
2022/04/05 01:21:52;;;;;;;6.32;2.25;;;;;;;;;;6105210;23;20022;-85
2022/04/05 01:24:18;;;;;;;9.75;1.88;;;;;;;;;;6103954;23;20028;-87
2022/04/05 01:26:48;;;;;;;11.02;2.25;;;;;;;;;;6105407;23;20013;-87
2022/04/05 01:29:15;;;;;;;9.48;2.60;;;;;;;;;;6104271;23;20079;-87
2022/04/05 01:31:45;;;;;;;11.68;3.05;;;;;;;;;;6128956;23;20021;-85
2022/04/05 01:34:13;;;;;;;16.88;2.60;;;;;;;;;;6129726;23;20018;-87
2022/04/05 01:36:43;;;;;;;12.75;3.13;;;;;;;;;;6104897;23;20014;-86
2022/04/05 01:39:15;;;;;;;10.55;2.65;;;7.10;99.90;;;;;;6104977;23;20045;-85
2022/04/05 01:41:41;;;;;;;8.27;2.88;;;;;;;;;;6129304;23;20018;-85
2022/04/05 01:44:09;;;;;;;12.38;3.47;;;;;;;;;;6103747;23;20021;-86
2022/04/05 01:46:36;;;;;;;8.75;2.17;;;;;;;;;;6104694;23;20014;-86
2022/04/05 01:49:05;;;;;;;13.65;2.67;;;;;;;;;;6105671;23;20450;-86
2022/04/05 01:51:31;;;;;;;11.50;2.60;;;;;;;;;;6099376;23;20015;-87
2022/04/05 01:53:59;;;;;;;11.45;3.20;;;;;;;;;;6099771;23;20463;-87
2022/04/05 01:56:25;;;;;;;11.23;5.15;;;;;;;;;;6125986;23;20458;-86
2022/04/05 01:58:51;;;;;;;10.70;3.10;;;;;;;;;;6124953;23;20026;-86
2022/04/05 02:01:17;;;;;;;27.00;3.75;;;;;;;;;;6126090;23;20014;-86
2022/04/05 02:03:43;;;;;;;16.38;3.72;;;;;;;;;;6125117;23;20097;-87
2022/04/05 02:06:10;;;;;;;17.90;2.88;;;;;;;;;;6127158;23;20014;-87
2022/04/05 02:08:36;;;;;;;13.85;3.03;;;;;;;;;;6128121;23;20096;-88
2022/04/05 02:11:02;;;;;;;17.70;4.00;;;;;;;;;;6126882;23;20080;-88
2022/04/05 02:13:28;;;;;;;9.27;2.60;;;;;;;;;;6102169;23;20017;-88
2022/04/05 02:15:54;;;;;;;12.15;3.30;;;;;;;;;;6101587;23;20018;-88
2022/04/05 02:18:20;;;;;;;12.93;3.30;;;;;;;;;;6126848;23;20025;-87
2022/04/05 02:20:49;;;;;;;10.75;3.72;;;;;;;;;;6128008;23;20095;-87
2022/04/05 02:23:15;;;;;;;7.88;3.20;;;;;;;;;;6125727;23;20029;-87
2022/04/05 02:25:42;;;;;;;19.23;4.85;;;;;;;;;;6126104;23;20029;-86
2022/04/05 02:28:08;;;;;;;15.55;2.40;;;;;;;;;;6127331;23;20024;-87
2022/04/05 02:30:34;;;;;;;19.42;3.30;;;;;;;;;;6125823;23;20022;-88
2022/04/05 02:33:00;;;;;;;23.80;3.38;;;;;;;;;;6125414;23;20018;-86
2022/04/05 02:35:26;;;;;;;9.32;2.30;;;;;;;;;;6127213;23;20029;-87
2022/04/05 02:37:52;;;;;;;13.60;3.38;;;;;;;;;;6126815;23;20022;-88
2022/04/05 02:40:18;;;;;;;13.13;3.05;;;;;;;;;;6100606;23;20053;-87
2022/04/05 02:42:44;;;;;;;13.52;3.15;;;;;;;;;;6127187;23;20021;-87
2022/04/05 02:45:11;;;;;;;13.68;3.00;;;;;;;;;;6127208;23;20372;-84
2022/04/05 02:47:37;;;;;;;9.68;2.92;;;;;;;;;;6101109;23;20018;-84
2022/04/05 02:50:04;;;;;;;13.05;2.58;;;;;;;;;;6124876;23;20101;-86
2022/04/05 02:52:30;;;;;;;14.23;2.88;;;;;;;;;;6124881;23;20018;-84
2022/04/05 02:54:56;;;;;;;15.55;3.33;;;;;;;;;;6101237;23;20387;-86
2022/04/05 02:57:22;;;;;;;15.15;2.97;;;;;;;;;;6125886;23;20446;-85
2022/04/05 02:59:48;;;;;;;18.27;3.03;;;;;;;;;;6127542;23;20466;-85
2022/04/05 03:02:14;;;;;;;17.90;4.38;;;;;;;;;;6100479;23;20010;-85
2022/04/05 03:04:40;;;;;;;15.20;4.55;;;;;;;;;;6125951;23;20025;-84
2022/04/05 03:07:06;;;;;;;13.57;2.95;;;;;;;;;;6100522;23;20018;-85
2022/04/05 03:09:32;;;;;;;9.45;3.50;;;;;;;;;;6100348;23;20022;-84
2022/04/05 03:11:58;;;;;;;20.52;4.10;;;;;;;;;;6101353;23;20446;-84
2022/04/05 03:14:25;;;;;;;12.90;3.33;;;;;;;;;;6100767;23;20440;-85
2022/04/05 03:16:51;;;;;;;16.83;4.88;;;;;;;;;;6100675;23;20053;-84
2022/04/05 03:19:17;;;;;;;15.85;4.60;;;;;;;;;;6102145;23;20018;-84
2022/04/05 03:21:43;;;;;;;16.60;4.53;;;;;;;;;;6100907;23;20028;-85
2022/04/05 03:24:09;;;;;;;15.85;4.50;;;;;;;;;;6128245;23;20017;-85
2022/04/05 03:26:35;;;;;;;18.10;3.38;;;;;;;;;;6127826;23;20014;-85
2022/04/05 03:29:01;;;;;;;12.55;3.65;;;;;;;;;;6101190;23;20102;-84
2022/04/05 03:31:27;;;;;;;12.13;3.55;;;;;;;;;;6101002;23;20410;-84
2022/04/05 03:33:53;;;;;;;11.50;2.63;;;;;;;;;;6125330;23;20478;-85
2022/04/05 03:36:19;;;;;;;19.80;3.05;;;;;;;;;;6124745;23;20026;-85
2022/04/05 03:38:45;;;;;;;17.83;3.92;;;;;;;;;;6125735;23;20145;-85
2022/04/05 03:41:12;;;;;;;16.10;3.13;;;;;;;;;;6101363;23;20058;-84
2022/04/05 03:43:38;;;;;;;11.63;2.45;;;;;;;;;;6124870;23;20049;-87
2022/04/05 03:46:04;;;;;;;10.98;3.47;;;;;;;;;;6127071;23;20093;-85
2022/04/05 03:48:30;;;;;;;10.10;2.85;;;;;;;;;;6101118;23;20025;-85
2022/04/05 03:50:56;;;;;;;21.35;3.85;;;;;;;;;;6105489;23;20022;-84
2022/04/05 03:53:22;;;;;;;11.10;2.90;;;;;;;;;;6156024;23;20063;-86
2022/04/05 03:55:48;;;;;;;11.63;2.88;;;;;;;;;;6105634;23;20021;-85
2022/04/05 03:58:15;;;;;;;18.23;2.67;;;;;;;;;;6156539;23;20019;-85
2022/04/05 04:00:41;;;;;;;12.38;2.90;;;;;;;;;;6130594;23;20018;-85
2022/04/05 04:03:07;;;;;;;19.83;4.18;;;;;;;;;;6130042;23;20021;-84
2022/04/05 04:05:33;;;;;;;16.90;3.70;;;;;;;;;;6155851;23;20018;-84
2022/04/05 04:07:59;;;;;;;13.45;2.95;;;;;;;;;;6130081;23;20021;-84
2022/04/05 04:10:25;;;;;;;14.43;3.35;;;;;;;;;;6130125;23;20009;-85
2022/04/05 04:12:51;;;;;;;23.95;3.63;;;;;;;;;;6155947;23;20391;-85
2022/04/05 04:15:17;;;;;;;18.85;3.25;;;;;;;;;;6105673;23;20052;-85
2022/04/05 04:17:43;;;;;;;23.83;3.60;;;;;;;;;;6104538;23;20043;-84
2022/04/05 04:20:10;;;;;;;13.75;3.50;;;;;;;;;;6104979;23;20017;-85
2022/04/05 04:22:36;;;;;;;13.23;3.42;;;;;;;;;;6105286;23;20057;-85
2022/04/05 04:25:02;;;;;;;17.52;3.03;;;;;;;;;;6156304;23;20022;-85
2022/04/05 04:27:28;;;;;;;17.95;3.05;;;;;;;;;;6129245;23;20355;-86
2022/04/05 04:29:54;;;;;;;8.77;2.38;;;;;;;;;;6130182;23;20028;-87
2022/04/05 04:32:20;;;;;;;10.23;3.20;;;;;;;;;;6105941;23;20473;-86
2022/04/05 04:34:46;;;;;;;6.60;2.45;;;;;;;;;;6156434;23;20025;-86
2022/04/05 04:37:13;;;;;;;20.25;4.72;;;;;;;;;;6130658;23;20021;-86
2022/04/05 04:39:40;;;;;;;20.10;5.13;;;;;;;;;;6106074;23;20017;-86
2022/04/05 04:42:06;;;;;;;12.23;3.63;;;;;;;;;;6130386;23;20394;-86
2022/04/05 04:44:32;;;;;;;13.77;3.80;;;;;;;;;;6105609;23;20060;-87
2022/04/05 04:46:58;;;;;;;17.50;4.15;;;;;;;;;;6105379;23;20021;-85
2022/04/05 04:49:25;;;;;;;14.10;3.08;;;;;;;;;;6106224;23;20013;-87
2022/04/05 04:51:51;;;;;;;17.42;2.95;;;;;;;;;;6125047;23;20057;-86
2022/04/05 04:54:17;;;;;;;13.75;4.05;;;;;;;;;;6124997;23;20110;-85
2022/04/05 04:56:43;;;;;;;17.67;3.28;;;;;;;;;;6125888;23;20040;-87
2022/04/05 04:59:09;;;;;;;8.48;2.92;;;;;;;;;;6125194;23;20037;-87
2022/04/05 05:01:35;;;;;;;10.00;2.97;;;;;;;;;;6101165;23;20028;-86
2022/04/05 05:04:02;;;;;;;11.80;3.17;;;;;;;;;;6126518;23;20051;-89
2022/04/05 05:06:28;;;;;;;8.85;2.38;;;;;;;;;;6100259;23;20092;-86
2022/04/05 05:08:54;;;;;;;14.45;4.32;;;;;;;;;;6100448;23;20021;-87
2022/04/05 05:11:20;;;;;;;15.55;3.28;;;;;;;;;;6124977;23;20014;-86
2022/04/05 05:13:46;;;;;;;9.05;2.78;;;;;;;;;;6125018;23;20077;-87
2022/04/05 05:16:12;;;;;;;14.38;3.00;;;;;;;;;;6125026;23;20068;-86
2022/04/05 05:18:39;;;;;;;15.60;3.25;;;;;;;;;;6125011;23;20022;-86
2022/04/05 05:21:05;;;;;;;11.30;3.47;;;;;;;;;;6100401;23;20022;-85
2022/04/05 05:23:31;;;;;;;23.67;2.95;;;;;;;;;;6126017;23;20021;-87
2022/04/05 05:25:57;;;;;;;12.68;3.13;;;;;;;;;;6124735;23;20018;-87
2022/04/05 05:28:23;;;;;;;17.55;3.25;;;;;;;;;;6124919;23;20379;-87
2022/04/05 05:30:49;;;;;;;12.75;2.67;;;;;;;;;;6100221;23;20020;-86
2022/04/05 05:33:15;;;;;;;10.43;2.88;;;;;;;;;;6124967;23;20021;-87
2022/04/05 05:35:42;;;;;;;14.93;3.38;;;;;;;;;;6124791;23;20014;-87
2022/04/05 05:38:08;;;;;;;13.95;3.78;;;;;;;;;;6100895;23;20064;-84
2022/04/05 05:40:35;;;;;;;8.88;2.83;;;;;;;;;;6102387;23;20017;-85
2022/04/05 05:43:02;;;;;;;11.32;3.28;;;;;;;;;;6126016;23;20107;-87
2022/04/05 05:45:29;;;;;;;20.55;4.07;;;;;;;;;;6126541;23;20149;-87
2022/04/05 05:47:55;;;;;;;29.27;3.08;;;;;;;;;;6102327;23;20022;-86
2022/04/05 05:50:21;;;;;;;9.63;2.40;;;;;;;;;;6102008;23;20014;-86
2022/04/05 05:52:48;;;;;;;16.23;3.63;;;;;;;;;;6101512;23;20075;-86
2022/04/05 05:55:15;;;;;;;12.32;2.65;;;;;;;;;;6101532;23;20359;-85
2022/04/05 05:57:41;;;;;;;11.73;2.90;;;;;;;;;;6101454;23;20014;-85
2022/04/05 06:00:11;;;;;;;10.52;2.72;;;;;;;;;;6125643;23;20014;-84
2022/04/05 06:02:38;;;;;;;10.32;2.90;;;;;;;;;;6101767;23;20018;-86
2022/04/05 06:05:04;;;;;;;21.15;3.65;;;;;;;;;;6127458;23;20018;-85
2022/04/05 06:07:30;;;;;;;6.90;2.70;;;;;;;;;;6102649;23;20060;-86
2022/04/05 06:09:56;;;;;;;14.07;3.28;;;;;;;;;;6103419;23;20518;-86
2022/04/05 06:12:22;;;;;;;8.98;2.67;;;;;;;;;;6128681;23;20378;-86
2022/04/05 06:14:48;;;;;;;12.23;3.00;;;;;;;;;;6128853;23;20022;-86
2022/04/05 06:17:15;;;;;;;15.35;2.70;;;;;;;;;;6127816;23;20028;-86
2022/04/05 06:19:41;;;;;;;20.02;4.45;;;;;;;;;;6127798;23;20022;-86
2022/04/05 06:22:07;;;;;;;11.73;3.35;;;;;;;;;;6102101;23;20076;-86
2022/04/05 06:24:33;;;;;;;10.60;2.90;;;;;;;;;;6103310;23;20022;-85
2022/04/05 06:26:59;;;;;;;8.68;3.47;;;;;;;;;;6104622;23;20018;-85
2022/04/05 06:29:25;;;;;;;6.47;2.33;;;;;;;;;;6105703;23;20014;-86
2022/04/05 06:31:51;;;;;;;11.27;2.63;;;;;;;;;;6128140;23;20076;-86
2022/04/05 06:34:17;;;;;;;9.98;2.83;;;;;;;;;;6104935;23;20049;-86
2022/04/05 06:36:43;;;;;;;8.82;2.10;;;;;;;;;;6103295;23;20009;-86
2022/04/05 06:39:10;;;;;;;11.90;3.03;;;;;;;;;;6103893;23;20406;-88
2022/04/05 06:41:36;;;;;;;11.25;3.72;;;;;;;;;;6102855;23;20454;-87
2022/04/05 06:44:02;;;;;;;13.57;2.60;;;;;;;;;;6102220;23;20459;-89
2022/04/05 06:46:28;;;;;;;10.07;3.00;;;;;;;;;;6101900;23;20022;-88
2022/04/05 06:48:54;;;;;;;9.02;2.53;;;;;;;;;;6102151;23;20106;-86
2022/04/05 06:51:20;;;;;;;8.27;2.25;;;;;;;;;;6127003;23;20470;-87
2022/04/05 06:53:47;;;;;;;11.10;2.60;;;;;;;;;;6102523;23;20022;-90
2022/04/05 06:56:13;;;;;;;14.32;3.40;;;;;;;;;;6126971;23;20073;-88
2022/04/05 06:58:39;;;;;;;12.65;2.88;;;;;;;;;;6102231;23;20021;-85
2022/04/05 07:01:06;;;;;;;11.18;3.00;;;;;;;;;;6101144;23;20515;-85
2022/04/05 07:03:32;;;;;;;11.88;3.25;;;;;;;;;;6126759;23;20022;-90
2022/04/05 07:05:58;;;;;;;8.70;2.70;;;;;;;;;;6126438;23;20033;-90
2022/04/05 07:08:24;;;;;;;14.88;3.58;;;;;;;;;;6102018;23;20076;-87
2022/04/05 07:10:53;;;;;;;9.27;2.63;;;;;;;;;;6128293;23;20411;-89
2022/04/05 07:13:19;;;;;;;8.60;2.70;;;;;;;;;;6127523;23;20022;-91
2022/04/05 07:15:45;;;;;;;14.82;3.35;;;;;;;;;;6126016;23;20014;-89
2022/04/05 07:18:11;;;;;;;8.38;3.50;;;;;;;;;;6127829;23;20410;-90
2022/04/05 07:20:37;;;;;;;9.20;2.83;;;;;;;;;;6125091;23;20037;-86
2022/04/05 07:23:04;;;;;;;9.82;2.65;;;;;;;;;;6125579;23;20073;-86
2022/04/05 07:25:31;;;;;;;10.98;2.80;;;;;;;;;;6126937;23;20053;-85
2022/04/05 07:27:57;;;;;;;10.98;3.42;;;;;;;;;;6125775;23;20066;-87
2022/04/05 07:30:24;;;;;;;8.88;2.78;;;;;;;;;;6125476;23;20446;-85
2022/04/05 07:32:50;;;;;;;7.82;2.70;;;;;;;;;;6100439;23;20022;-86
2022/04/05 07:35:17;;;;;;;13.18;2.97;;;;;;;;;;6126796;23;20022;-86
2022/04/05 07:37:44;;;;;;;12.80;3.70;;;;;;;;;;6125237;23;20022;-85
2022/04/05 07:40:11;;;;;;;10.40;2.90;;;;;;;;;;6125004;23;20029;-85
2022/04/05 07:42:46;;;;;;;10.68;2.70;;;;;;;;;;6127438;23;20071;-86
2022/04/05 07:45:13;;;;;;;10.18;2.70;;;;;;;;;;6127066;23;20455;-86
2022/04/05 07:47:39;;;;;;;5.70;2.40;;;;;;;;;;6101933;23;20025;-86
2022/04/05 07:50:07;;;;;;;12.30;2.92;;;;;;;;;;6126959;23;20029;-86
2022/04/05 07:52:33;;;;;;;9.05;2.58;;;;;;;;;;6124465;23;20025;-86
2022/04/05 07:55:00;;;;;;;7.90;3.00;;;;;;;;;;6126253;23;20093;-87
2022/04/05 07:57:26;;;;;;;10.57;2.83;;;;;;;;;;6100446;23;20018;-86
2022/04/05 07:59:52;;;;;;;9.77;3.35;;;;;;;;;;6124882;23;20089;-87
2022/04/05 08:02:18;;;;;;;7.68;2.50;;;;;;;;;;6123695;23;20032;-86
2022/04/05 08:04:45;;;;;;;7.72;3.13;;;;;;;;;;6126573;23;20013;-87
2022/04/05 08:07:11;;;;;;;5.78;2.53;;;;;;;;;;6126568;23;20025;-86
2022/04/05 08:09:37;;;;;;;10.07;2.33;;;;;;;;;;6100541;23;20018;-86
2022/04/05 08:12:03;;;;;;;9.75;2.28;;;;;;;;;;6124482;23;20018;-86
2022/04/05 08:14:31;;;;;;;8.57;2.60;;;;;;;;;;6124948;23;20076;-86
2022/04/05 08:16:57;;;;;;;8.43;2.28;;;;;;;;;;6126303;23;20073;-85
2022/04/05 08:19:24;;;;;;;8.77;2.85;;;;;;;;;;6124950;23;20097;-86
2022/04/05 08:21:50;;;;;;;5.43;2.30;;;;;;;;;;6124849;23;20359;-87
2022/04/05 08:24:17;;;;;;;4.68;1.83;;;;;;;;;;6100945;23;20022;-87
2022/04/05 08:26:43;;;;;;;13.93;3.03;;;;;;;;;;6101191;23;20387;-87
2022/04/05 08:29:10;;;;;;;13.73;2.58;;;;;;;;;;6100640;23;20014;-86
2022/04/05 08:31:36;;;;;;;10.93;2.28;;;;;;;;;;6100830;23;20478;-86
2022/04/05 08:34:02;;;;;;;7.07;2.63;;;7.70;99.90;;;;;;6101218;23;20025;-85
2022/04/05 08:36:28;;;;;;;11.93;3.08;;;;;;;;;;6125461;23;20354;-85
2022/04/05 08:38:54;;;;;;;2.33;1.67;;;;;;;;;;6124456;23;20343;-86
2022/04/05 08:41:21;;;;;;;7.45;2.17;;;;;;;;;;6100646;23;20017;-86
2022/04/05 08:43:51;;;;;;;6.90;2.45;;;;;;;;;;6100996;23;20450;-86
2022/04/05 08:46:18;;;;;;;5.85;2.88;;;;;;;;;;6126119;23;20014;-86
2022/04/05 08:48:46;;;;;;;8.43;2.20;;;;;;;;;;6126406;23;20021;-85
2022/04/05 08:51:12;;;;;;;8.13;2.72;;;;;;;;;;6106005;23;20049;-86
2022/04/05 08:53:39;;;;;;;7.47;2.22;;;;;;;;;;6130996;23;20074;-88
2022/04/05 08:56:05;;;;;;;7.47;3.55;;;;;;;;;;6106239;23;20056;-84
2022/04/05 08:58:31;;;;;;;4.20;2.47;;;;;;;;;;6104504;23;20409;-85
2022/04/05 09:00:57;;;;;;;10.45;2.15;;;;;;;;;;6107113;23;20021;-88
2022/04/05 09:03:23;;;;;;;8.55;2.60;;;;;;;;;;6106151;23;20024;-86
2022/04/05 09:05:50;;;;;;;5.78;2.40;;;;;;;;;;6131551;23;20029;-85
2022/04/05 09:08:19;;;;;;;10.48;2.85;;;;;;;;;;6107257;23;20080;-86
2022/04/05 09:10:47;;;;;;;8.00;2.00;;;;;;;;;;6107415;23;20013;-85
2022/04/05 09:13:16;;;;;;;4.95;2.55;;;;;;;;;;6106897;23;20113;-87
2022/04/05 09:15:42;;;;;;;3.47;1.85;;;;;;;;;;6107453;23;20450;-86
2022/04/05 09:18:08;;;;;;;6.13;1.85;;;8.30;99.90;;;;;;6106628;23;20021;-86
2022/04/05 09:20:48;;;;;;;7.97;2.67;;;;;;;;;;6106456;23;20021;-85
2022/04/05 09:23:29;;;;;;;6.93;1.92;;;8.40;99.90;;;;;;6105504;23;20466;-86
2022/04/05 09:25:57;;;;;;;5.10;2.30;;;;;;;;;;6106106;23;20088;-85
2022/04/05 09:28:27;;;;;;;2.72;1.92;;;;;;;;;;6131018;23;20036;-86
2022/04/05 09:30:56;;;;;;;7.55;2.22;;;;;;;;;;6106791;23;20022;-85
2022/04/05 09:33:22;;;;;;;5.95;2.00;;;;;;;;;;6106434;23;20009;-86
2022/04/05 09:35:53;;;;;;;5.25;1.88;;;;;;;;;;6106851;23;20083;-86
2022/04/05 09:38:20;;;;;;;5.07;2.08;;;;;;;;;;6106427;23;20017;-85
2022/04/05 09:40:52;;;;;;;7.78;2.10;;;;;;;;;;6130746;23;20017;-85
2022/04/05 09:43:18;;;;;;;9.20;2.92;;;;;;;;;;6129444;23;20053;-85
2022/04/05 09:45:53;;;;;;;8.02;1.92;;;;;;;;;;6105031;23;20025;-85
2022/04/05 09:48:21;;;;;;;6.60;2.33;;;;;;;;;;6105440;23;20097;-85
2022/04/05 09:51:01;;;;;;;4.47;2.63;;;;;;;;;;6156623;23;20017;-84
2022/04/05 09:53:47;;;;;;;5.65;1.77;;;;;;;;;;6106220;23;20022;-87
2022/04/05 09:56:22;;;;;;;6.68;1.95;;;;;;;;;;6156329;23;20025;-89
2022/04/05 09:58:48;;;;;;;3.10;2.00;;;;;;;;;;6129984;23;20057;-89
2022/04/05 10:01:15;;;;;;;3.97;1.70;;;;;;;;;;6105829;23;20024;-88
2022/04/05 10:03:42;;;;;;;3.92;2.45;;;;;;;;;;6129759;23;20063;-88
2022/04/05 10:06:09;;;;;;;3.70;2.20;;;;;;;;;;6130822;23;20023;-85
2022/04/05 10:08:36;;;;;;;4.53;2.05;;;;;;;;;;6129647;23;20013;-85
2022/04/05 10:11:02;;;;;;;4.35;1.95;;;;;;;;;;6129660;23;20014;-85
2022/04/05 10:13:29;;;;;;;4.47;1.60;;;;;;;;;;6130733;23;20033;-89
2022/04/05 10:15:56;;;;;;;3.33;2.00;;;;;;;;;;6129280;23;20014;-88
2022/04/05 10:18:22;;;;;;;3.22;1.73;;;;;;;;;;6129825;23;20022;-89
2022/04/05 10:20:50;;;;;;;5.47;1.90;;;8.40;99.90;;;;;;6129435;23;20036;-89
2022/04/05 10:23:20;;;;;;;4.60;1.80;;;;;;;;;;6104477;23;20399;-88
2022/04/05 10:25:51;;;;;;;2.80;1.45;;;;;;;;;;6130770;23;20108;-88
2022/04/05 10:28:19;;;;;;;4.03;1.90;;;8.50;99.90;;;;;;6131019;23;20477;-89
2022/04/05 10:30:51;;;;;;;4.30;1.60;;;;;;;;;;6106739;23;20025;-89
2022/04/05 10:33:20;;;;;;;3.92;1.90;;;;;;;;;;6131607;23;20017;-89
2022/04/05 10:35:58;;;;;;;2.45;1.75;;;;;;;;;;6130933;23;20057;-88
2022/04/05 10:38:24;;;;;;;2.90;1.70;;;;;;;;;;6131693;23;20045;-90
2022/04/05 10:41:22;;;;;;;3.22;1.80;;;8.50;99.90;;;;;;6107448;23;20155;-89
2022/04/05 10:44:19;;;;;;;4.78;2.38;;;8.60;99.90;;;;;;6132098;23;20031;-90
2022/04/05 10:46:53;;;;;;;2.90;1.90;;;8.40;99.90;;;;;;6106728;23;20398;-89
2022/04/05 10:49:45;;;;;;;2.85;2.25;;;;;;;;;;6130847;23;20013;-90
2022/04/05 10:52:15;;;;;;;3.40;1.95;;;;;;;;;;6127350;23;20060;-85
2022/04/05 10:54:41;;;;;;;5.22;2.00;;;;;;;;;;6126906;23;20091;-90
2022/04/05 10:57:20;;;;;;;5.70;1.60;;;;;;;;;;6126694;23;20014;-90
2022/04/05 10:59:53;;;;;;;1.75;1.60;;;8.70;99.90;;;;;;6125597;23;20026;-89
2022/04/05 11:02:28;;;;;;;3.53;1.70;;;;;;;;;;6125391;23;20102;-90
2022/04/05 11:05:02;;;;;;;4.97;2.35;;;;;;;;;;6126044;23;20280;-88
2022/04/05 11:07:29;;;;;;;;;;;;;;;;;;6126393;23;20068;-84
2022/04/05 11:09:56;;;;;;;2.13;1.30;;;;;;;;;;6127659;23;19999;-84
2022/04/05 11:12:26;;;;;;;2.50;1.70;;;;;;;;;;6127249;23;20017;-85
2022/04/05 11:14:59;;;;;;;1.38;1.27;;;;;;;;;;6101008;23;20018;-84
2022/04/05 11:17:27;;;;;;;1.50;1.40;;;;;;;;;;6100363;23;20084;-84
2022/04/05 11:19:55;;;;;;;3.17;1.85;;;;;;;;;;6100628;23;20021;-84
2022/04/05 11:22:21;;;;;;;2.42;1.20;;;;;;;;;;6101256;23;20537;-84
2022/04/05 11:25:00;;;;;;;2.20;1.60;;;;;;;;;;6100289;23;20018;-84
2022/04/05 11:27:45;;;;;;;1.35;1.25;;;;;;;;;;6100802;23;20028;-84
2022/04/05 11:30:21;;;;;;;1.67;1.58;;;;;;;;;;6125994;23;20074;-84
2022/04/05 11:33:17;;;;;;;1.48;1.38;;;9.30;99.90;;;;;;6100732;23;20085;-87
2022/04/05 11:35:46;;;;;;;1.90;1.33;;;;;;;;;;6127511;23;20022;-84
2022/04/05 11:38:18;;;;;;;1.65;1.35;;;;;;;;;;6127334;23;20018;-85
2022/04/05 11:40:52;;;;;;;1.75;1.35;;;;;;;;;;6127030;23;20041;-84
2022/04/05 11:43:19;;;;;;;0.88;0.85;;;;;;;;;;6100637;23;20191;-85
2022/04/05 11:45:49;;;;;;;2.00;1.50;;;;;;;;;;6100841;23;20513;-84
2022/04/05 11:48:18;;;;;;;1.90;1.13;;;;;;;;;;6124113;23;20093;-84
2022/04/05 11:50:44;;;;;;;2.22;1.50;;;;;;;;;;6101175;23;20459;-84
2022/04/05 11:53:24;;;;;;;1.50;1.27;;;;;;;;;;6155385;23;20098;-86
2022/04/05 11:56:13;;;;;;;1.27;1.17;;;9.60;99.90;;;;;;6129884;23;20021;-85
2022/04/05 11:58:41;;;;;;;1.33;1.23;;;;;;;;;;6104991;23;20021;-90
2022/04/05 12:01:09;;;;;;;1.40;1.30;;;;;;;;;;6129467;23;20458;-89
2022/04/05 12:03:44;;;;;;;1.55;1.45;;;;;;;;;;6104724;23;20018;-90
2022/04/05 12:06:11;;;;;;;2.00;1.83;;;;;;;;;;6105956;23;20026;-89
2022/04/05 12:08:37;;;;;;;2.25;1.45;;;;;;;;;;6106033;23;20013;-90
2022/04/05 12:11:04;;;;;;;2.13;1.58;;;;;;;;;;6156138;23;20028;-91
2022/04/05 12:13:31;;;;;;;1.70;1.60;;;;;;;;;;6156435;23;20009;-90
2022/04/05 12:16:01;;;;;;;3.90;1.60;;;;;;;;;;6106106;23;20021;-92
2022/04/05 12:18:30;;;;;;;2.88;1.83;;;;;;;;;;6105914;23;20466;-91
2022/04/05 12:20:57;;;;;;;2.50;1.77;;;;;;;;;;6130651;23;20022;-92
2022/04/05 12:23:24;;;;;;;2.03;1.80;;;;;;;;;;6156470;23;20025;-90
2022/04/05 12:26:02;;;;;;;2.80;2.55;;;;;;;;;;6130087;23;20021;-90
2022/04/05 12:28:28;;;;;;;1.85;1.70;;;;;;;;;;6129986;23;20025;-88
2022/04/05 12:31:03;;;;;;;2.22;2.03;;;;;;;;;;6129678;23;20024;-91
2022/04/05 12:33:29;;;;;;;2.70;2.00;;;;;;;;;;6130336;23;20026;-92
2022/04/05 12:35:55;;;;;;;2.45;2.25;;;;;;;;;;6107000;23;20013;-91
2022/04/05 12:38:21;;;;;;;2.00;1.80;;;;;;;;;;6105991;23;20028;-92
2022/04/05 12:40:47;;;;;;;2.25;2.05;;;;;;;;;;6106825;23;20454;-91
2022/04/05 12:43:19;;;;;;;2.33;2.13;;;;;;;;;;6131288;23;20022;-84
2022/04/05 12:45:46;;;;;;;2.55;2.30;;;;;;;;;;6129754;23;20096;-85
2022/04/05 12:48:18;;;;;;;2.25;2.00;;;10.40;99.90;;;;;;6129170;23;20049;-85
2022/04/05 12:50:52;;;;;;;3.15;2.40;;;10.20;99.90;;;;;;6104288;23;20390;-85
2022/04/05 12:53:31;;;;;;;2.55;2.35;;;;;;;;;;6129095;23;20533;-84
2022/04/05 12:56:02;;;;;;;3.70;3.05;;;;;;;;;;6104495;23;20021;-84
2022/04/05 12:58:40;;;;;;;4.40;2.45;;;10.20;99.90;;;;;;6105274;23;20017;-85
2022/04/05 13:01:16;;;;;;;4.13;3.00;;;;;;;;;;6129518;23;20087;-85
2022/04/05 13:03:42;;;;;;;5.03;4.53;;;;;;;;;;6129676;23;20017;-86
2022/04/05 13:06:20;;;;;;;5.28;3.00;;;;;;;;;;6129551;23;20029;-85
2022/04/05 13:08:47;;;;;;;6.05;3.60;;;;;;;;;;6129484;23;20136;-84
2022/04/05 13:11:30;;;;;;;6.25;4.45;;;;;;;;;;6105429;23;20014;-84
2022/04/05 13:14:03;;;;;;;4.65;3.72;;;;;;;;;;6105228;23;20028;-85
2022/04/05 13:16:29;;;;;;;5.03;3.28;;;;;;;;;;6104910;23;20092;-84
2022/04/05 13:19:06;;;;;;;7.85;4.03;;;;;;;;;;6104782;23;20017;-85
2022/04/05 13:21:39;;;;;;;3.80;2.88;;;;;;;;;;6103906;23;20101;-85
2022/04/05 13:24:06;;;;;;;5.65;3.70;;;9.90;99.90;;;;;;6128795;23;20057;-86
2022/04/05 13:26:33;;;;;;;10.85;4.93;;;;;;;;;;6104817;23;20015;-85
2022/04/05 13:29:20;;;;;;;7.95;4.45;;;10.00;99.90;;;;;;6105137;23;20025;-85
2022/04/05 13:32:01;;;;;;;10.07;4.05;;;10.10;99.90;;;;;;6129224;23;20500;-84
2022/04/05 13:34:29;;;;;;;11.38;5.88;;;10.00;99.90;;;;;;6129192;23;20017;-84
2022/04/05 13:36:55;;;;;;;11.48;4.82;;;;;;;;;;6103867;23;20017;-85
2022/04/05 13:39:23;;;;;;;11.73;4.90;;;10.10;99.90;;;;;;6128912;23;20409;-85
2022/04/05 13:41:52;;;;;;;17.20;5.63;;;;;;;;;;6128436;23;20072;-84
2022/04/05 13:44:19;;;;;;;10.40;5.57;;;;;;;;;;6129270;23;20021;-84
2022/04/05 13:46:45;;;;;;;14.40;5.70;;;;;;;;;;6105027;23;20020;-85
2022/04/05 13:49:16;;;;;;;15.00;6.45;;;;;;;;;;6128682;23;20393;-85
2022/04/05 13:51:46;;;;;;;14.73;6.88;;;9.90;99.90;;;;;;6098828;23;20088;-86
2022/04/05 13:54:12;;;;;;;12.48;6.25;;;;;;;;;;6124208;23;20100;-85
2022/04/05 13:56:39;;;;;;;14.18;6.82;;;;;;;;;;6100941;23;20146;-85
2022/04/05 13:59:05;;;;;;;16.17;6.32;;;;;;;;;;6124476;23;20050;-85
2022/04/05 14:01:32;;;;;;;10.73;5.47;;;9.80;99.90;;;;;;6101819;23;20036;-85
2022/04/05 14:03:58;;;;;;;15.27;7.00;;;;;;;;;;6101590;23;20018;-85
2022/04/05 14:06:24;;;;;;;13.00;6.40;;;;;;;;;;6126390;23;20022;-84
2022/04/05 14:08:50;;;;;;;17.00;6.13;;;;;;;;;;6101246;23;20524;-85
2022/04/05 14:11:16;;;;;;;16.40;6.57;;;;;;;;;;6127332;23;20024;-86
2022/04/05 14:13:43;;;;;;;12.98;6.03;;;;;;;;;;6101536;23;20022;-86
2022/04/05 14:16:09;;;;;;;17.30;6.32;;;;;;;;;;6127331;23;20025;-87
2022/04/05 14:18:38;;;;;;;7.22;4.47;;;;;;;;;;6128356;23;20089;-86
2022/04/05 14:21:07;;;;;;;10.02;4.82;;;;;;;;;;6126435;23;20451;-86
2022/04/05 14:23:34;;;;;;;12.45;5.40;;;;;;;;;;6125296;23;20025;-86
2022/04/05 14:26:01;;;;;;;15.15;5.50;;;;;;;;;;6126452;23;20045;-86
2022/04/05 14:28:27;;;;;;;8.93;5.70;;;;;;;;;;6127860;23;20033;-90
2022/04/05 14:30:53;;;;;;;13.85;6.50;;;;;;;;;;6126076;23;20497;-89
2022/04/05 14:33:20;;;;;;;17.27;6.80;;;;;;;;;;6128322;23;20018;-91